sensor_id;sensor_type;location;lat;lon;timestamp;temperature;humidity
5842;DHT22;2947;52.276;9.946;2024-02-15T00:01:11;10.90;99.90
5842;DHT22;2947;52.276;9.946;2024-02-15T00:03:37;10.90;99.90
5842;DHT22;2947;52.276;9.946;2024-02-15T00:06:02;10.90;99.90
5842;DHT22;2947;52.276;9.946;2024-02-15T00:08:31;11.00;99.90
5842;DHT22;2947;52.276;9.946;2024-02-15T00:10:58;11.00;99.90
5842;DHT22;2947;52.276;9.946;2024-02-15T00:13:24;11.00;99.90
5842;DHT22;2947;52.276;9.946;2024-02-15T00:15:50;11.00;99.90
5842;DHT22;2947;52.276;9.946;2024-02-15T00:18:16;11.80;99.90
5842;DHT22;2947;52.276;9.946;2024-02-15T00:20:41;11.00;99.90
5842;DHT22;2947;52.276;9.946;2024-02-15T00:23:09;11.00;99.90
5842;DHT22;2947;52.276;9.946;2024-02-15T00:25:34;11.10;99.90
5842;DHT22;2947;52.276;9.946;2024-02-15T00:28:01;11.10;99.90
5842;DHT22;2947;52.276;9.946;2024-02-15T00:30:28;11.10;99.90
5842;DHT22;2947;52.276;9.946;2024-02-15T00:32:54;11.10;99.90
5842;DHT22;2947;52.276;9.946;2024-02-15T00:35:20;11.10;99.90
5842;DHT22;2947;52.276;9.946;2024-02-15T00:37:46;11.10;99.90
5842;DHT22;2947;52.276;9.946;2024-02-15T00:40:12;11.20;99.90
5842;DHT22;2947;52.276;9.946;2024-02-15T00:42:38;11.10;99.90
5842;DHT22;2947;52.276;9.946;2024-02-15T00:45:04;11.90;99.90
5842;DHT22;2947;52.276;9.946;2024-02-15T00:47:30;11.10;99.90
5842;DHT22;2947;52.276;9.946;2024-02-15T00:49:56;11.20;99.90
5842;DHT22;2947;52.276;9.946;2024-02-15T00:52:23;11.10;99.90
5842;DHT22;2947;52.276;9.946;2024-02-15T00:54:49;11.20;99.90
5842;DHT22;2947;52.276;9.946;2024-02-15T00:57:15;11.20;99.90
5842;DHT22;2947;52.276;9.946;2024-02-15T00:59:41;11.30;99.90
5842;DHT22;2947;52.276;9.946;2024-02-15T01:02:06;11.20;99.90
5842;DHT22;2947;52.276;9.946;2024-02-15T01:04:34;11.20;99.90
5842;DHT22;2947;52.276;9.946;2024-02-15T01:06:59;11.20;99.90
5842;DHT22;2947;52.276;9.946;2024-02-15T01:09:25;11.30;99.90
5842;DHT22;2947;52.276;9.946;2024-02-15T01:11:51;11.20;99.90
5842;DHT22;2947;52.276;9.946;2024-02-15T01:14:17;11.20;99.90
5842;DHT22;2947;52.276;9.946;2024-02-15T01:16:42;12.40;99.90
5842;DHT22;2947;52.276;9.946;2024-02-15T01:19:09;11.30;99.90
5842;DHT22;2947;52.276;9.946;2024-02-15T01:21:36;11.30;99.90
5842;DHT22;2947;52.276;9.946;2024-02-15T01:24:02;11.20;99.90
5842;DHT22;2947;52.276;9.946;2024-02-15T01:26:29;11.20;99.90
5842;DHT22;2947;52.276;9.946;2024-02-15T01:28:57;11.20;99.90
5842;DHT22;2947;52.276;9.946;2024-02-15T01:31:23;11.20;99.90
5842;DHT22;2947;52.276;9.946;2024-02-15T01:33:50;11.20;99.90
5842;DHT22;2947;52.276;9.946;2024-02-15T01:36:16;11.20;99.90
5842;DHT22;2947;52.276;9.946;2024-02-15T01:38:43;11.20;99.90
5842;DHT22;2947;52.276;9.946;2024-02-15T01:41:10;11.20;99.90
5842;DHT22;2947;52.276;9.946;2024-02-15T01:43:36;11.20;99.90
5842;DHT22;2947;52.276;9.946;2024-02-15T01:46:08;11.20;99.90
5842;DHT22;2947;52.276;9.946;2024-02-15T01:48:36;11.20;99.90
5842;DHT22;2947;52.276;9.946;2024-02-15T01:51:02;11.20;99.90
5842;DHT22;2947;52.276;9.946;2024-02-15T01:53:29;11.20;99.90
5842;DHT22;2947;52.276;9.946;2024-02-15T01:55:56;11.20;99.90
5842;DHT22;2947;52.276;9.946;2024-02-15T01:58:26;11.70;99.90
5842;DHT22;2947;52.276;9.946;2024-02-15T02:00:53;11.20;99.90
5842;DHT22;2947;52.276;9.946;2024-02-15T02:03:21;11.20;99.90
5842;DHT22;2947;52.276;9.946;2024-02-15T02:05:47;11.20;99.90
5842;DHT22;2947;52.276;9.946;2024-02-15T02:08:13;11.20;99.90
5842;DHT22;2947;52.276;9.946;2024-02-15T02:10:39;11.20;99.90
5842;DHT22;2947;52.276;9.946;2024-02-15T02:13:05;11.20;99.90
5842;DHT22;2947;52.276;9.946;2024-02-15T02:15:32;11.20;99.90
5842;DHT22;2947;52.276;9.946;2024-02-15T02:18:01;11.20;99.90
5842;DHT22;2947;52.276;9.946;2024-02-15T02:20:27;11.20;99.90
5842;DHT22;2947;52.276;9.946;2024-02-15T02:23:07;11.20;99.90
5842;DHT22;2947;52.276;9.946;2024-02-15T02:25:35;11.20;99.90
5842;DHT22;2947;52.276;9.946;2024-02-15T02:28:01;11.20;99.90
5842;DHT22;2947;52.276;9.946;2024-02-15T02:30:27;11.70;99.90
5842;DHT22;2947;52.276;9.946;2024-02-15T02:32:55;11.20;99.90
5842;DHT22;2947;52.276;9.946;2024-02-15T02:35:22;11.20;99.90
5842;DHT22;2947;52.276;9.946;2024-02-15T02:37:48;11.30;99.90
5842;DHT22;2947;52.276;9.946;2024-02-15T02:40:14;11.30;99.90
5842;DHT22;2947;52.276;9.946;2024-02-15T02:42:52;11.30;99.90
5842;DHT22;2947;52.276;9.946;2024-02-15T02:45:21;11.30;99.90
5842;DHT22;2947;52.276;9.946;2024-02-15T02:47:51;11.30;99.90
5842;DHT22;2947;52.276;9.946;2024-02-15T02:50:17;11.30;99.90
5842;DHT22;2947;52.276;9.946;2024-02-15T02:52:44;11.30;99.90
5842;DHT22;2947;52.276;9.946;2024-02-15T02:55:10;11.30;99.90
5842;DHT22;2947;52.276;9.946;2024-02-15T02:57:38;11.30;99.90
5842;DHT22;2947;52.276;9.946;2024-02-15T03:00:09;11.30;99.90
5842;DHT22;2947;52.276;9.946;2024-02-15T03:02:40;11.30;99.90
5842;DHT22;2947;52.276;9.946;2024-02-15T03:05:08;11.20;99.90
5842;DHT22;2947;52.276;9.946;2024-02-15T03:07:35;11.20;99.90
5842;DHT22;2947;52.276;9.946;2024-02-15T03:10:03;11.30;99.90
5842;DHT22;2947;52.276;9.946;2024-02-15T03:12:36;11.30;99.90
5842;DHT22;2947;52.276;9.946;2024-02-15T03:15:06;11.30;99.90
5842;DHT22;2947;52.276;9.946;2024-02-15T03:17:41;11.30;99.90
5842;DHT22;2947;52.276;9.946;2024-02-15T03:20:09;11.30;99.90
5842;DHT22;2947;52.276;9.946;2024-02-15T03:22:59;11.30;99.90
5842;DHT22;2947;52.276;9.946;2024-02-15T03:25:26;11.30;99.90
5842;DHT22;2947;52.276;9.946;2024-02-15T03:27:56;11.20;99.90
5842;DHT22;2947;52.276;9.946;2024-02-15T03:30:23;11.30;99.90
5842;DHT22;2947;52.276;9.946;2024-02-15T03:32:51;11.20;99.90
5842;DHT22;2947;52.276;9.946;2024-02-15T03:35:18;11.30;99.90
5842;DHT22;2947;52.276;9.946;2024-02-15T03:37:45;11.30;99.90
5842;DHT22;2947;52.276;9.946;2024-02-15T03:40:11;11.20;99.90
5842;DHT22;2947;52.276;9.946;2024-02-15T03:42:37;11.30;99.90
5842;DHT22;2947;52.276;9.946;2024-02-15T03:45:04;11.30;99.90
5842;DHT22;2947;52.276;9.946;2024-02-15T03:47:35;11.30;99.90
5842;DHT22;2947;52.276;9.946;2024-02-15T03:50:02;11.30;99.90
5842;DHT22;2947;52.276;9.946;2024-02-15T03:52:31;11.30;99.90
5842;DHT22;2947;52.276;9.946;2024-02-15T03:54:58;11.30;99.90
5842;DHT22;2947;52.276;9.946;2024-02-15T03:57:26;11.40;99.90
5842;DHT22;2947;52.276;9.946;2024-02-15T03:59:53;11.40;99.90
5842;DHT22;2947;52.276;9.946;2024-02-15T04:02:20;11.40;99.90
5842;DHT22;2947;52.276;9.946;2024-02-15T04:04:46;11.40;99.90
5842;DHT22;2947;52.276;9.946;2024-02-15T04:07:15;11.40;99.90
5842;DHT22;2947;52.276;9.946;2024-02-15T04:09:42;11.40;99.90
5842;DHT22;2947;52.276;9.946;2024-02-15T04:12:08;11.30;99.90
5842;DHT22;2947;52.276;9.946;2024-02-15T04:14:34;11.40;99.90
5842;DHT22;2947;52.276;9.946;2024-02-15T04:17:00;11.40;99.90
5842;DHT22;2947;52.276;9.946;2024-02-15T04:19:27;11.40;99.90
5842;DHT22;2947;52.276;9.946;2024-02-15T04:21:53;11.40;99.90
5842;DHT22;2947;52.276;9.946;2024-02-15T04:24:21;11.40;99.90
5842;DHT22;2947;52.276;9.946;2024-02-15T04:26:47;11.40;99.90
5842;DHT22;2947;52.276;9.946;2024-02-15T04:29:14;11.40;99.90
5842;DHT22;2947;52.276;9.946;2024-02-15T04:31:41;11.50;99.90
5842;DHT22;2947;52.276;9.946;2024-02-15T04:34:08;11.40;99.90
5842;DHT22;2947;52.276;9.946;2024-02-15T04:36:37;11.50;99.90
5842;DHT22;2947;52.276;9.946;2024-02-15T04:39:02;11.50;99.90
5842;DHT22;2947;52.276;9.946;2024-02-15T04:41:29;11.50;99.90
5842;DHT22;2947;52.276;9.946;2024-02-15T04:43:55;11.50;99.90
5842;DHT22;2947;52.276;9.946;2024-02-15T04:46:21;11.50;99.90
5842;DHT22;2947;52.276;9.946;2024-02-15T04:48:48;11.50;99.90
5842;DHT22;2947;52.276;9.946;2024-02-15T04:51:17;11.50;99.90
5842;DHT22;2947;52.276;9.946;2024-02-15T04:53:45;11.50;99.90
5842;DHT22;2947;52.276;9.946;2024-02-15T04:56:12;11.50;99.90
5842;DHT22;2947;52.276;9.946;2024-02-15T04:58:42;11.50;99.90
5842;DHT22;2947;52.276;9.946;2024-02-15T05:01:15;11.50;99.90
5842;DHT22;2947;52.276;9.946;2024-02-15T05:03:45;11.50;99.90
5842;DHT22;2947;52.276;9.946;2024-02-15T05:06:12;11.50;99.90
5842;DHT22;2947;52.276;9.946;2024-02-15T05:08:41;11.40;99.90
5842;DHT22;2947;52.276;9.946;2024-02-15T05:11:10;11.40;99.90
5842;DHT22;2947;52.276;9.946;2024-02-15T05:13:43;11.50;99.90
5842;DHT22;2947;52.276;9.946;2024-02-15T05:16:10;11.40;99.90
5842;DHT22;2947;52.276;9.946;2024-02-15T05:18:36;11.40;99.90
5842;DHT22;2947;52.276;9.946;2024-02-15T05:21:04;11.40;99.90
5842;DHT22;2947;52.276;9.946;2024-02-15T05:23:40;11.40;99.90
5842;DHT22;2947;52.276;9.946;2024-02-15T05:26:08;11.50;99.90
5842;DHT22;2947;52.276;9.946;2024-02-15T05:28:35;11.50;99.90
5842;DHT22;2947;52.276;9.946;2024-02-15T05:31:19;11.50;99.90
5842;DHT22;2947;52.276;9.946;2024-02-15T05:33:46;11.50;99.90
5842;DHT22;2947;52.276;9.946;2024-02-15T05:36:20;11.50;99.90
5842;DHT22;2947;52.276;9.946;2024-02-15T05:38:51;11.50;99.90
5842;DHT22;2947;52.276;9.946;2024-02-15T05:41:17;11.50;99.90
5842;DHT22;2947;52.276;9.946;2024-02-15T05:43:45;11.60;99.90
5842;DHT22;2947;52.276;9.946;2024-02-15T05:46:12;11.60;99.90
5842;DHT22;2947;52.276;9.946;2024-02-15T05:48:39;11.60;99.90
5842;DHT22;2947;52.276;9.946;2024-02-15T05:51:06;11.60;99.90
5842;DHT22;2947;52.276;9.946;2024-02-15T05:53:34;11.60;99.90
5842;DHT22;2947;52.276;9.946;2024-02-15T05:56:05;11.60;99.90
5842;DHT22;2947;52.276;9.946;2024-02-15T05:58:41;12.10;99.90
5842;DHT22;2947;52.276;9.946;2024-02-15T06:01:08;11.60;99.90
5842;DHT22;2947;52.276;9.946;2024-02-15T06:03:37;11.60;99.90
5842;DHT22;2947;52.276;9.946;2024-02-15T06:06:04;11.60;99.90
5842;DHT22;2947;52.276;9.946;2024-02-15T06:08:34;11.60;99.90
5842;DHT22;2947;52.276;9.946;2024-02-15T06:11:00;11.60;99.90
5842;DHT22;2947;52.276;9.946;2024-02-15T06:13:27;11.60;99.90
5842;DHT22;2947;52.276;9.946;2024-02-15T06:15:53;11.60;99.90
5842;DHT22;2947;52.276;9.946;2024-02-15T06:18:24;12.40;99.90
5842;DHT22;2947;52.276;9.946;2024-02-15T06:20:58;11.60;99.90
5842;DHT22;2947;52.276;9.946;2024-02-15T06:23:28;13.00;99.90
5842;DHT22;2947;52.276;9.946;2024-02-15T06:25:55;12.30;99.90
5842;DHT22;2947;52.276;9.946;2024-02-15T06:28:23;11.60;99.90
5842;DHT22;2947;52.276;9.946;2024-02-15T06:31:08;11.60;99.90
5842;DHT22;2947;52.276;9.946;2024-02-15T06:33:54;11.60;99.90
5842;DHT22;2947;52.276;9.946;2024-02-15T06:36:49;11.60;99.90
5842;DHT22;2947;52.276;9.946;2024-02-15T06:39:36;11.70;99.90
5842;DHT22;2947;52.276;9.946;2024-02-15T06:42:14;11.60;99.90
5842;DHT22;2947;52.276;9.946;2024-02-15T06:44:44;11.60;99.90
5842;DHT22;2947;52.276;9.946;2024-02-15T06:47:10;11.60;99.90
5842;DHT22;2947;52.276;9.946;2024-02-15T06:49:38;11.60;99.90
5842;DHT22;2947;52.276;9.946;2024-02-15T06:52:06;11.60;99.90
5842;DHT22;2947;52.276;9.946;2024-02-15T06:54:36;11.70;99.90
5842;DHT22;2947;52.276;9.946;2024-02-15T06:57:03;11.60;99.90
5842;DHT22;2947;52.276;9.946;2024-02-15T06:59:30;11.60;99.90
5842;DHT22;2947;52.276;9.946;2024-02-15T07:02:01;11.60;99.90
5842;DHT22;2947;52.276;9.946;2024-02-15T07:04:30;11.60;99.90
5842;DHT22;2947;52.276;9.946;2024-02-15T07:06:57;11.60;99.90
5842;DHT22;2947;52.276;9.946;2024-02-15T07:09:25;11.60;99.90
5842;DHT22;2947;52.276;9.946;2024-02-15T07:11:51;11.60;99.90
5842;DHT22;2947;52.276;9.946;2024-02-15T07:14:17;11.60;99.90
5842;DHT22;2947;52.276;9.946;2024-02-15T07:16:47;11.60;99.90
5842;DHT22;2947;52.276;9.946;2024-02-15T07:19:15;11.70;99.90
5842;DHT22;2947;52.276;9.946;2024-02-15T07:21:41;11.70;99.90
5842;DHT22;2947;52.276;9.946;2024-02-15T07:24:08;11.70;99.90
5842;DHT22;2947;52.276;9.946;2024-02-15T07:26:35;12.70;99.90
5842;DHT22;2947;52.276;9.946;2024-02-15T07:29:02;11.70;99.90
5842;DHT22;2947;52.276;9.946;2024-02-15T07:31:31;11.70;99.90
5842;DHT22;2947;52.276;9.946;2024-02-15T07:33:59;11.70;99.90
5842;DHT22;2947;52.276;9.946;2024-02-15T07:36:25;11.70;99.90
5842;DHT22;2947;52.276;9.946;2024-02-15T07:38:55;11.80;99.90
5842;DHT22;2947;52.276;9.946;2024-02-15T07:41:26;11.80;99.90
5842;DHT22;2947;52.276;9.946;2024-02-15T07:43:53;11.10;99.90
5842;DHT22;2947;52.276;9.946;2024-02-15T07:46:21;11.80;99.90
5842;DHT22;2947;52.276;9.946;2024-02-15T07:48:47;11.90;99.90
5842;DHT22;2947;52.276;9.946;2024-02-15T07:51:17;11.90;99.90
5842;DHT22;2947;52.276;9.946;2024-02-15T07:53:46;11.90;99.90
5842;DHT22;2947;52.276;9.946;2024-02-15T07:56:13;11.90;99.90
5842;DHT22;2947;52.276;9.946;2024-02-15T07:58:44;12.00;99.90
5842;DHT22;2947;52.276;9.946;2024-02-15T08:01:12;12.00;99.90
5842;DHT22;2947;52.276;9.946;2024-02-15T08:03:39;12.00;99.90
5842;DHT22;2947;52.276;9.946;2024-02-15T08:06:11;12.00;99.90
5842;DHT22;2947;52.276;9.946;2024-02-15T08:08:39;12.00;99.90
5842;DHT22;2947;52.276;9.946;2024-02-15T08:11:07;12.10;99.90
5842;DHT22;2947;52.276;9.946;2024-02-15T08:13:47;12.00;99.90
5842;DHT22;2947;52.276;9.946;2024-02-15T08:16:19;12.10;99.90
5842;DHT22;2947;52.276;9.946;2024-02-15T08:18:47;12.10;99.90
5842;DHT22;2947;52.276;9.946;2024-02-15T08:21:14;12.10;99.90
5842;DHT22;2947;52.276;9.946;2024-02-15T08:23:40;12.10;99.90
5842;DHT22;2947;52.276;9.946;2024-02-15T08:26:06;12.10;99.90
5842;DHT22;2947;52.276;9.946;2024-02-15T08:28:32;12.10;99.90
5842;DHT22;2947;52.276;9.946;2024-02-15T08:30:58;12.20;99.90
5842;DHT22;2947;52.276;9.946;2024-02-15T08:33:26;12.20;99.90
5842;DHT22;2947;52.276;9.946;2024-02-15T08:35:54;12.20;99.90
5842;DHT22;2947;52.276;9.946;2024-02-15T08:38:21;12.20;99.90
5842;DHT22;2947;52.276;9.946;2024-02-15T08:40:47;12.20;99.90
5842;DHT22;2947;52.276;9.946;2024-02-15T08:43:14;12.20;99.90
5842;DHT22;2947;52.276;9.946;2024-02-15T08:45:43;12.30;99.90
5842;DHT22;2947;52.276;9.946;2024-02-15T08:48:10;13.20;99.90
5842;DHT22;2947;52.276;9.946;2024-02-15T08:50:36;12.40;99.90
5842;DHT22;2947;52.276;9.946;2024-02-15T08:53:02;12.40;99.90
5842;DHT22;2947;52.276;9.946;2024-02-15T08:55:32;12.50;99.90
5842;DHT22;2947;52.276;9.946;2024-02-15T08:57:57;12.50;99.90
5842;DHT22;2947;52.276;9.946;2024-02-15T09:00:25;12.50;99.90
5842;DHT22;2947;52.276;9.946;2024-02-15T09:02:52;10.90;99.90
5842;DHT22;2947;52.276;9.946;2024-02-15T09:05:18;13.20;99.90
5842;DHT22;2947;52.276;9.946;2024-02-15T09:07:45;12.50;99.90
5842;DHT22;2947;52.276;9.946;2024-02-15T09:10:15;12.60;99.90
5842;DHT22;2947;52.276;9.946;2024-02-15T09:12:43;13.20;99.90
5842;DHT22;2947;52.276;9.946;2024-02-15T09:15:12;12.60;99.90
5842;DHT22;2947;52.276;9.946;2024-02-15T09:17:38;12.60;99.90
5842;DHT22;2947;52.276;9.946;2024-02-15T09:20:15;12.60;99.90
5842;DHT22;2947;52.276;9.946;2024-02-15T09:22:51;12.70;99.90
5842;DHT22;2947;52.276;9.946;2024-02-15T09:25:18;12.70;99.90
5842;DHT22;2947;52.276;9.946;2024-02-15T09:27:44;12.80;99.90
5842;DHT22;2947;52.276;9.946;2024-02-15T09:30:12;12.90;99.90
5842;DHT22;2947;52.276;9.946;2024-02-15T09:32:39;12.90;99.90
5842;DHT22;2947;52.276;9.946;2024-02-15T09:35:05;12.90;99.90
5842;DHT22;2947;52.276;9.946;2024-02-15T09:37:35;12.90;99.90
5842;DHT22;2947;52.276;9.946;2024-02-15T09:40:07;13.80;99.90
5842;DHT22;2947;52.276;9.946;2024-02-15T09:42:35;13.00;99.90
5842;DHT22;2947;52.276;9.946;2024-02-15T09:45:02;13.00;99.90
5842;DHT22;2947;52.276;9.946;2024-02-15T09:47:35;13.00;99.90
5842;DHT22;2947;52.276;9.946;2024-02-15T09:50:08;13.30;99.90
5842;DHT22;2947;52.276;9.946;2024-02-15T09:52:59;13.10;99.90
5842;DHT22;2947;52.276;9.946;2024-02-15T09:55:28;14.00;99.90
5842;DHT22;2947;52.276;9.946;2024-02-15T09:57:55;13.10;99.90
5842;DHT22;2947;52.276;9.946;2024-02-15T10:00:21;13.10;99.90
5842;DHT22;2947;52.276;9.946;2024-02-15T10:02:49;13.20;99.90
5842;DHT22;2947;52.276;9.946;2024-02-15T10:05:18;14.30;99.90
5842;DHT22;2947;52.276;9.946;2024-02-15T10:07:45;13.50;99.90
5842;DHT22;2947;52.276;9.946;2024-02-15T10:10:21;13.20;99.90
5842;DHT22;2947;52.276;9.946;2024-02-15T10:12:49;13.20;99.90
5842;DHT22;2947;52.276;9.946;2024-02-15T10:18:07;13.20;99.90
5842;DHT22;2947;52.276;9.946;2024-02-15T10:20:36;13.10;99.90
5842;DHT22;2947;52.276;9.946;2024-02-15T10:23:11;13.10;99.90
5842;DHT22;2947;52.276;9.946;2024-02-15T10:25:39;13.10;99.90
5842;DHT22;2947;52.276;9.946;2024-02-15T10:28:10;13.10;99.90
5842;DHT22;2947;52.276;9.946;2024-02-15T10:30:41;13.10;99.90
5842;DHT22;2947;52.276;9.946;2024-02-15T10:33:18;13.10;99.90
5842;DHT22;2947;52.276;9.946;2024-02-15T10:35:49;13.10;99.90
5842;DHT22;2947;52.276;9.946;2024-02-15T10:38:15;13.10;99.90
5842;DHT22;2947;52.276;9.946;2024-02-15T10:40:42;13.10;99.90
5842;DHT22;2947;52.276;9.946;2024-02-15T10:43:10;13.10;99.90
5842;DHT22;2947;52.276;9.946;2024-02-15T10:45:39;14.50;99.90
5842;DHT22;2947;52.276;9.946;2024-02-15T10:48:09;13.10;99.90
5842;DHT22;2947;52.276;9.946;2024-02-15T10:50:35;13.10;99.90
5842;DHT22;2947;52.276;9.946;2024-02-15T10:53:11;13.10;99.90
5842;DHT22;2947;52.276;9.946;2024-02-15T10:56:11;13.10;99.90
5842;DHT22;2947;52.276;9.946;2024-02-15T10:58:55;13.20;99.90
5842;DHT22;2947;52.276;9.946;2024-02-15T11:01:46;13.10;99.90
5842;DHT22;2947;52.276;9.946;2024-02-15T11:04:20;14.80;99.90
5842;DHT22;2947;52.276;9.946;2024-02-15T11:06:52;13.20;99.90
5842;DHT22;2947;52.276;9.946;2024-02-15T11:09:21;13.10;99.90
5842;DHT22;2947;52.276;9.946;2024-02-15T11:11:47;13.10;99.90
5842;DHT22;2947;52.276;9.946;2024-02-15T11:14:29;13.10;99.90
5842;DHT22;2947;52.276;9.946;2024-02-15T11:16:58;13.10;99.90
5842;DHT22;2947;52.276;9.946;2024-02-15T11:22:01;13.10;99.90
5842;DHT22;2947;52.276;9.946;2024-02-15T11:24:37;13.00;99.90
5842;DHT22;2947;52.276;9.946;2024-02-15T11:27:11;13.10;99.90
5842;DHT22;2947;52.276;9.946;2024-02-15T11:32:39;15.00;99.90
5842;DHT22;2947;52.276;9.946;2024-02-15T11:35:10;13.00;99.90
5842;DHT22;2947;52.276;9.946;2024-02-15T11:43:08;13.00;99.90
5842;DHT22;2947;52.276;9.946;2024-02-15T11:45:35;13.10;99.90
5842;DHT22;2947;52.276;9.946;2024-02-15T11:48:10;13.00;99.90
5842;DHT22;2947;52.276;9.946;2024-02-15T11:50:38;13.10;99.90
5842;DHT22;2947;52.276;9.946;2024-02-15T11:53:06;13.50;99.90
5842;DHT22;2947;52.276;9.946;2024-02-15T11:55:37;13.10;99.90
5842;DHT22;2947;52.276;9.946;2024-02-15T11:58:05;13.10;99.90
5842;DHT22;2947;52.276;9.946;2024-02-15T12:00:35;13.10;99.90
5842;DHT22;2947;52.276;9.946;2024-02-15T12:03:20;13.20;99.90
5842;DHT22;2947;52.276;9.946;2024-02-15T12:06:05;13.20;99.90
5842;DHT22;2947;52.276;9.946;2024-02-15T12:08:51;13.30;99.90
5842;DHT22;2947;52.276;9.946;2024-02-15T12:11:37;13.30;99.90
5842;DHT22;2947;52.276;9.946;2024-02-15T12:14:23;13.30;99.90
5842;DHT22;2947;52.276;9.946;2024-02-15T12:17:08;13.40;99.90
5842;DHT22;2947;52.276;9.946;2024-02-15T12:19:54;13.40;99.90
5842;DHT22;2947;52.276;9.946;2024-02-15T12:22:37;13.40;99.90
5842;DHT22;2947;52.276;9.946;2024-02-15T12:25:15;13.40;99.90
5842;DHT22;2947;52.276;9.946;2024-02-15T12:27:45;13.40;99.90
5842;DHT22;2947;52.276;9.946;2024-02-15T12:30:16;13.30;99.90
5842;DHT22;2947;52.276;9.946;2024-02-15T12:32:49;13.30;99.90
5842;DHT22;2947;52.276;9.946;2024-02-15T12:35:20;13.30;99.90
5842;DHT22;2947;52.276;9.946;2024-02-15T12:37:48;13.20;99.90
5842;DHT22;2947;52.276;9.946;2024-02-15T12:40:39;13.30;99.90
5842;DHT22;2947;52.276;9.946;2024-02-15T12:43:06;13.30;99.90
5842;DHT22;2947;52.276;9.946;2024-02-15T12:45:40;13.20;99.90
5842;DHT22;2947;52.276;9.946;2024-02-15T12:48:07;13.20;99.90
5842;DHT22;2947;52.276;9.946;2024-02-15T12:50:34;13.30;99.90
5842;DHT22;2947;52.276;9.946;2024-02-15T12:53:00;13.30;99.90
5842;DHT22;2947;52.276;9.946;2024-02-15T12:55:35;13.30;99.90
5842;DHT22;2947;52.276;9.946;2024-02-15T12:58:06;13.40;99.90
5842;DHT22;2947;52.276;9.946;2024-02-15T13:00:39;13.30;99.90
5842;DHT22;2947;52.276;9.946;2024-02-15T13:03:07;13.70;99.90
5842;DHT22;2947;52.276;9.946;2024-02-15T13:05:38;14.40;99.90
5842;DHT22;2947;52.276;9.946;2024-02-15T13:08:04;13.30;99.90
5842;DHT22;2947;52.276;9.946;2024-02-15T13:10:39;13.30;99.90
5842;DHT22;2947;52.276;9.946;2024-02-15T13:13:06;13.30;99.90
5842;DHT22;2947;52.276;9.946;2024-02-15T13:15:35;13.30;99.90
5842;DHT22;2947;52.276;9.946;2024-02-15T13:18:02;13.30;99.90
5842;DHT22;2947;52.276;9.946;2024-02-15T13:20:35;13.30;99.90
5842;DHT22;2947;52.276;9.946;2024-02-15T13:23:10;13.30;99.90
5842;DHT22;2947;52.276;9.946;2024-02-15T13:25:48;13.80;99.90
5842;DHT22;2947;52.276;9.946;2024-02-15T13:28:14;13.30;99.90
5842;DHT22;2947;52.276;9.946;2024-02-15T13:30:41;13.30;99.90
5842;DHT22;2947;52.276;9.946;2024-02-15T13:33:10;13.30;99.90
5842;DHT22;2947;52.276;9.946;2024-02-15T13:35:36;14.20;99.90
5842;DHT22;2947;52.276;9.946;2024-02-15T13:38:02;13.30;99.90
5842;DHT22;2947;52.276;9.946;2024-02-15T13:40:29;13.30;99.90
5842;DHT22;2947;52.276;9.946;2024-02-15T13:43:00;13.40;99.90
5842;DHT22;2947;52.276;9.946;2024-02-15T13:45:39;13.40;99.90
5842;DHT22;2947;52.276;9.946;2024-02-15T13:48:06;13.40;99.90
5842;DHT22;2947;52.276;9.946;2024-02-15T13:50:34;13.50;99.90
5842;DHT22;2947;52.276;9.946;2024-02-15T13:53:01;12.20;99.90
5842;DHT22;2947;52.276;9.946;2024-02-15T13:55:29;13.50;99.90
5842;DHT22;2947;52.276;9.946;2024-02-15T13:57:56;14.20;99.90
5842;DHT22;2947;52.276;9.946;2024-02-15T14:00:22;13.60;99.90
5842;DHT22;2947;52.276;9.946;2024-02-15T14:02:56;13.60;99.90
5842;DHT22;2947;52.276;9.946;2024-02-15T14:05:24;13.60;99.90
5842;DHT22;2947;52.276;9.946;2024-02-15T14:07:55;13.60;99.90
5842;DHT22;2947;52.276;9.946;2024-02-15T14:10:23;15.00;99.90
5842;DHT22;2947;52.276;9.946;2024-02-15T14:12:54;13.70;99.90
5842;DHT22;2947;52.276;9.946;2024-02-15T14:15:21;13.70;99.90
5842;DHT22;2947;52.276;9.946;2024-02-15T14:17:47;13.70;99.90
5842;DHT22;2947;52.276;9.946;2024-02-15T14:20:14;13.70;99.90
5842;DHT22;2947;52.276;9.946;2024-02-15T14:22:48;14.10;99.90
5842;DHT22;2947;52.276;9.946;2024-02-15T14:25:18;13.70;99.90
5842;DHT22;2947;52.276;9.946;2024-02-15T14:27:44;13.70;99.90
5842;DHT22;2947;52.276;9.946;2024-02-15T14:30:13;13.70;99.90
5842;DHT22;2947;52.276;9.946;2024-02-15T14:32:57;13.70;99.90
5842;DHT22;2947;52.276;9.946;2024-02-15T14:35:36;13.70;99.90
5842;DHT22;2947;52.276;9.946;2024-02-15T14:38:07;13.70;99.90
5842;DHT22;2947;52.276;9.946;2024-02-15T14:40:37;12.90;99.90
5842;DHT22;2947;52.276;9.946;2024-02-15T14:43:04;13.70;99.90
5842;DHT22;2947;52.276;9.946;2024-02-15T14:45:34;13.70;99.90
5842;DHT22;2947;52.276;9.946;2024-02-15T14:48:00;13.60;99.90
5842;DHT22;2947;52.276;9.946;2024-02-15T14:50:26;13.60;99.90
5842;DHT22;2947;52.276;9.946;2024-02-15T14:52:52;13.70;99.90
5842;DHT22;2947;52.276;9.946;2024-02-15T14:55:19;13.70;99.90
5842;DHT22;2947;52.276;9.946;2024-02-15T14:57:46;13.70;99.90
5842;DHT22;2947;52.276;9.946;2024-02-15T15:00:12;13.70;99.90
5842;DHT22;2947;52.276;9.946;2024-02-15T15:02:40;13.60;99.90
5842;DHT22;2947;52.276;9.946;2024-02-15T15:05:07;13.60;99.90
5842;DHT22;2947;52.276;9.946;2024-02-15T15:07:52;13.50;99.90
5842;DHT22;2947;52.276;9.946;2024-02-15T15:10:36;13.60;99.90
5842;DHT22;2947;52.276;9.946;2024-02-15T15:13:20;13.50;99.90
5842;DHT22;2947;52.276;9.946;2024-02-15T15:15:47;13.50;99.90
5842;DHT22;2947;52.276;9.946;2024-02-15T15:18:14;13.50;99.90
5842;DHT22;2947;52.276;9.946;2024-02-15T15:20:40;13.50;99.90
5842;DHT22;2947;52.276;9.946;2024-02-15T15:23:06;14.30;99.90
5842;DHT22;2947;52.276;9.946;2024-02-15T15:25:36;13.60;99.90
5842;DHT22;2947;52.276;9.946;2024-02-15T15:28:05;13.60;99.90
5842;DHT22;2947;52.276;9.946;2024-02-15T15:30:31;13.50;99.90
5842;DHT22;2947;52.276;9.946;2024-02-15T15:32:57;13.60;99.90
5842;DHT22;2947;52.276;9.946;2024-02-15T15:35:23;13.60;99.90
5842;DHT22;2947;52.276;9.946;2024-02-15T15:37:52;13.60;99.90
5842;DHT22;2947;52.276;9.946;2024-02-15T15:40:18;13.60;99.90
5842;DHT22;2947;52.276;9.946;2024-02-15T15:42:44;14.90;99.90
5842;DHT22;2947;52.276;9.946;2024-02-15T15:45:11;13.70;99.90
5842;DHT22;2947;52.276;9.946;2024-02-15T15:47:38;13.60;99.90
5842;DHT22;2947;52.276;9.946;2024-02-15T15:50:05;13.60;99.90
5842;DHT22;2947;52.276;9.946;2024-02-15T15:52:37;13.70;99.90
5842;DHT22;2947;52.276;9.946;2024-02-15T15:55:05;13.60;99.90
5842;DHT22;2947;52.276;9.946;2024-02-15T15:57:38;13.70;99.90
5842;DHT22;2947;52.276;9.946;2024-02-15T16:00:09;13.70;99.90
5842;DHT22;2947;52.276;9.946;2024-02-15T16:02:40;13.60;99.90
5842;DHT22;2947;52.276;9.946;2024-02-15T16:05:08;13.60;99.90
5842;DHT22;2947;52.276;9.946;2024-02-15T16:07:35;13.60;99.90
5842;DHT22;2947;52.276;9.946;2024-02-15T16:10:01;13.60;99.90
5842;DHT22;2947;52.276;9.946;2024-02-15T16:12:27;13.50;99.90
5842;DHT22;2947;52.276;9.946;2024-02-15T16:14:53;13.50;99.90
5842;DHT22;2947;52.276;9.946;2024-02-15T16:17:20;13.50;99.90
5842;DHT22;2947;52.276;9.946;2024-02-15T16:19:46;13.50;99.90
5842;DHT22;2947;52.276;9.946;2024-02-15T16:22:12;13.50;99.90
5842;DHT22;2947;52.276;9.946;2024-02-15T16:24:37;13.40;99.90
5842;DHT22;2947;52.276;9.946;2024-02-15T16:27:03;14.80;99.90
5842;DHT22;2947;52.276;9.946;2024-02-15T16:29:32;13.40;99.90